Time,TemperatureF,DewpointF,PressureIn,WindDirection,WindDirectionDegrees,WindSpeedMPH,WindSpeedGustMPH,Humidity,HourlyPrecipIn,Conditions,Clouds,dailyrainin,SoftwareType,DateUTC
2013-01-16 00:04:00,35.0,32.1,30.12,NE,41,6.0,14.0,89,0.00,,,0.00,Wunderground PWS Mod,2013-01-16 05:04:00,
2013-01-16 00:08:00,34.9,32.0,30.12,ENE,75,4.0,14.0,89,0.00,,,0.00,Wunderground PWS Mod,2013-01-16 05:08:00,
2013-01-16 00:10:00,35.0,32.1,30.15,NE,45,5.0,9.0,89,0.11,,,0.10,Wunderground PWS Mod,2013-01-16 05:10:00,
2013-01-16 00:12:00,35.0,32.1,30.15,NE,45,5.0,9.0,89,0.11,,,0.10,Wunderground PWS Mod,2013-01-16 05:12:00,
2013-01-16 00:14:00,34.9,32.3,30.12,NE,45,4.0,14.0,90,0.00,,,0.00,Wunderground PWS Mod,2013-01-16 05:14:00,
2013-01-16 00:24:00,34.8,32.2,30.11,ENE,65,3.0,14.0,90,0.00,,,0.00,Wunderground PWS Mod,2013-01-16 05:24:00,
2013-01-16 00:34:00,34.9,32.3,30.13,ENE,58,2.0,14.0,90,0.00,,,0.00,Wunderground PWS Mod,2013-01-16 05:34:00,
2013-01-16 00:44:00,34.9,32.3,30.12,NE,44,3.0,14.0,90,0.00,,,0.00,Wunderground PWS Mod,2013-01-16 05:44:00,
2013-01-16 00:50:00,35.0,32.4,30.12,NE,45,4.0,7.0,90,0.08,,,0.13,Wunderground PWS Mod,2013-01-16 05:50:00,
2013-01-16 00:52:00,35.0,32.4,30.12,NE,45,4.0,7.0,90,0.08,,,0.13,Wunderground PWS Mod,2013-01-16 05:52:00,
2013-01-16 00:54:00,35.0,32.4,30.10,NNE,33,4.0,14.0,90,0.00,,,0.00,Wunderground PWS Mod,2013-01-16 05:54:00,
2013-01-16 01:04:00,35.1,32.5,30.10,NE,38,5.0,12.0,90,0.00,,,0.00,Wunderground PWS Mod,2013-01-16 06:04:00,
2013-01-16 01:10:00,35.0,32.4,30.12,NE,45,4.0,7.0,90,0.08,,,0.17,Wunderground PWS Mod,2013-01-16 06:10:00,
2013-01-16 01:12:00,35.0,32.4,30.12,NE,45,4.0,7.0,90,0.08,,,0.17,Wunderground PWS Mod,2013-01-16 06:12:00,
2013-01-16 01:14:00,35.1,32.5,30.10,NE,48,6.0,12.0,90,0.00,,,0.00,Wunderground PWS Mod,2013-01-16 06:14:00,
2013-01-16 01:24:00,34.9,32.3,30.10,NE,50,3.0,12.0,90,0.00,,,0.00,Wunderground PWS Mod,2013-01-16 06:24:00,
2013-01-16 01:34:00,34.9,32.3,30.09,NE,39,6.0,12.0,90,0.00,,,0.00,Wunderground PWS Mod,2013-01-16 06:34:00,
2013-01-16 01:44:00,34.9,32.5,30.10,NNE,21,6.0,12.0,91,0.00,,,0.00,Wunderground PWS Mod,2013-01-16 06:44:00,
2013-01-16 01:50:00,35.0,32.4,30.12,NE,45,4.0,8.0,90,0.10,,,0.23,Wunderground PWS Mod,2013-01-16 06:50:00,
2013-01-16 01:52:00,35.0,32.4,30.12,NE,45,4.0,8.0,90,0.10,,,0.23,Wunderground PWS Mod,2013-01-16 06:52:00,
2013-01-16 01:54:00,35.1,32.5,30.09,NE,37,3.0,12.0,90,0.00,,,0.00,Wunderground PWS Mod,2013-01-16 06:54:00,
2013-01-16 02:04:00,34.9,32.3,30.09,NNE,32,4.0,7.0,90,0.00,,,0.00,Wunderground PWS Mod,2013-01-16 07:04:00,
2013-01-16 02:14:00,34.7,32.1,30.09,NE,35,3.0,8.0,90,0.00,,,0.00,Wunderground PWS Mod,2013-01-16 07:14:00,
2013-01-16 02:20:00,34.7,32.1,30.13,NNE,23,4.0,8.0,90,0.16,,,0.33,Wunderground PWS Mod,2013-01-16 07:20:00,
2013-01-16 02:22:00,34.7,32.1,30.13,NNE,23,4.0,8.0,90,0.16,,,0.33,Wunderground PWS Mod,2013-01-16 07:22:00,
2013-01-16 02:24:00,34.7,32.1,30.10,North,10,3.0,8.0,90,0.00,,,0.00,Wunderground PWS Mod,2013-01-16 07:24:00,
2013-01-16 02:34:00,34.7,32.3,30.11,North,3,2.0,8.0,91,0.00,,,0.00,Wunderground PWS Mod,2013-01-16 07:34:00,
2013-01-16 02:44:00,34.6,32.2,30.12,North,0,4.0,8.0,91,0.00,,,0.00,Wunderground PWS Mod,2013-01-16 07:44:00,
2013-01-16 02:50:00,34.6,32.2,30.14,North,0,3.0,7.0,91,0.24,,,0.47,Wunderground PWS Mod,2013-01-16 07:50:00,
2013-01-16 02:52:00,34.6,32.2,30.14,North,0,3.0,7.0,91,0.24,,,0.47,Wunderground PWS Mod,2013-01-16 07:52:00,
2013-01-16 02:54:00,34.6,32.0,30.12,North,7,3.0,8.0,90,0.00,,,0.00,Wunderground PWS Mod,2013-01-16 07:54:00,
2013-01-16 03:04:00,34.5,31.9,30.12,NNE,12,3.0,8.0,90,0.00,,,0.00,Wunderground PWS Mod,2013-01-16 08:04:00,
2013-01-16 03:10:00,34.6,32.2,30.14,North,0,3.0,7.0,91,0.24,,,0.55,Wunderground PWS Mod,2013-01-16 08:10:00,
2013-01-16 03:12:00,34.6,32.2,30.14,North,0,3.0,7.0,91,0.24,,,0.55,Wunderground PWS Mod,2013-01-16 08:12:00,
2013-01-16 03:14:00,34.4,32.0,30.12,NNE,15,3.0,8.0,91,0.00,,,0.00,Wunderground PWS Mod,2013-01-16 08:14:00,
2013-01-16 03:24:00,34.5,31.9,30.10,NNE,32,3.0,8.0,90,0.00,,,0.00,Wunderground PWS Mod,2013-01-16 08:24:00,
2013-01-16 03:34:00,34.8,32.4,30.09,NE,50,3.0,8.0,91,0.00,,,0.00,Wunderground PWS Mod,2013-01-16 08:34:00,
2013-01-16 03:44:00,34.5,32.1,30.08,NE,50,2.0,8.0,91,0.00,,,0.00,Wunderground PWS Mod,2013-01-16 08:44:00,
2013-01-16 03:50:00,34.6,32.2,30.09,NE,45,3.0,6.0,91,0.08,,,0.55,Wunderground PWS Mod,2013-01-16 08:50:00,
2013-01-16 03:52:00,34.6,32.2,30.09,NE,45,3.0,6.0,91,0.08,,,0.55,Wunderground PWS Mod,2013-01-16 08:52:00,
2013-01-16 03:54:00,34.5,32.1,30.07,NE,41,2.0,8.0,91,0.00,,,0.00,Wunderground PWS Mod,2013-01-16 08:54:00,
2013-01-16 04:04:00,34.5,32.1,30.06,ENE,76,3.0,8.0,91,0.00,,,0.00,Wunderground PWS Mod,2013-01-16 09:04:00,
2013-01-16 04:14:00,34.5,32.1,30.06,ENE,63,2.0,8.0,91,0.00,,,0.00,Wunderground PWS Mod,2013-01-16 09:14:00,
2013-01-16 04:20:00,34.6,32.2,30.08,ENE,68,3.0,7.0,91,0.00,,,0.55,Wunderground PWS Mod,2013-01-16 09:20:00,
2013-01-16 04:22:00,34.6,32.2,30.08,ENE,68,3.0,7.0,91,0.00,,,0.55,Wunderground PWS Mod,2013-01-16 09:22:00,
2013-01-16 04:24:00,34.8,32.4,30.06,NE,37,2.0,8.0,91,0.00,,,0.00,Wunderground PWS Mod,2013-01-16 09:24:00,
2013-01-16 04:34:00,34.6,32.2,30.05,NE,38,5.0,8.0,91,0.00,,,0.00,Wunderground PWS Mod,2013-01-16 09:34:00,
2013-01-16 04:44:00,34.6,32.2,30.03,East,93,3.0,8.0,91,0.00,,,0.00,Wunderground PWS Mod,2013-01-16 09:44:00,
2013-01-16 04:50:00,34.6,32.2,30.03,East,90,3.0,7.0,91,0.00,,,0.55,Wunderground PWS Mod,2013-01-16 09:50:00,
2013-01-16 04:52:00,34.6,32.2,30.03,East,90,3.0,7.0,91,0.00,,,0.55,Wunderground PWS Mod,2013-01-16 09:52:00,
2013-01-16 04:54:00,34.6,32.2,30.02,East,97,5.0,8.0,91,0.00,,,0.00,Wunderground PWS Mod,2013-01-16 09:54:00,
2013-01-16 05:04:00,34.7,32.1,30.00,East,96,3.0,7.0,90,0.00,,,0.00,Wunderground PWS Mod,2013-01-16 10:04:00,
2013-01-16 05:14:00,34.8,32.2,30.01,East,95,2.0,7.0,90,0.00,,,0.00,Wunderground PWS Mod,2013-01-16 10:14:00,
2013-01-16 05:16:00,34.6,32.2,30.03,East,90,3.0,7.0,91,0.00,,,0.55,Wunderground PWS Mod,2013-01-16 10:16:00,
2013-01-16 05:24:00,34.7,32.1,30.02,ENE,63,4.0,7.0,90,0.00,,,0.00,Wunderground PWS Mod,2013-01-16 10:24:00,
2013-01-16 05:34:00,34.6,32.0,30.02,ENE,67,3.0,7.0,90,0.00,,,0.00,Wunderground PWS Mod,2013-01-16 10:34:00,
2013-01-16 05:44:00,34.7,32.1,30.02,ENE,66,2.0,7.0,90,0.00,,,0.00,Wunderground PWS Mod,2013-01-16 10:44:00,
2013-01-16 05:50:00,34.7,32.3,30.06,ENE,68,2.0,4.0,91,0.01,,,0.56,Wunderground PWS Mod,2013-01-16 10:50:00,
2013-01-16 05:52:00,34.7,32.3,30.06,ENE,68,2.0,4.0,91,0.01,,,0.56,Wunderground PWS Mod,2013-01-16 10:52:00,
2013-01-16 05:54:00,34.8,32.2,30.03,ENE,60,0.0,7.0,90,0.00,,,0.00,Wunderground PWS Mod,2013-01-16 10:54:00,
2013-01-16 06:04:00,34.9,32.3,30.04,NE,49,4.0,6.0,90,0.00,,,0.00,Wunderground PWS Mod,2013-01-16 11:04:00,
2013-01-16 06:14:00,35.1,32.5,30.04,NE,38,2.0,6.0,90,0.00,,,0.00,Wunderground PWS Mod,2013-01-16 11:14:00,
2013-01-16 06:18:00,35.1,32.7,30.05,NE,45,3.0,6.0,91,0.01,,,0.56,Wunderground PWS Mod,2013-01-16 11:18:00,
2013-01-16 06:24:00,35.1,32.5,30.03,NE,38,1.0,6.0,90,0.00,,,0.00,Wunderground PWS Mod,2013-01-16 11:24:00,
2013-01-16 06:34:00,35.2,32.6,30.03,NE,37,3.0,6.0,90,0.00,,,0.00,Wunderground PWS Mod,2013-01-16 11:34:00,
2013-01-16 06:44:00,35.5,32.9,30.02,NE,36,1.0,6.0,90,0.00,,,0.00,Wunderground PWS Mod,2013-01-16 11:44:00,
2013-01-16 06:50:00,35.5,32.9,30.05,NE,45,2.0,5.0,90,0.00,,,0.56,Wunderground PWS Mod,2013-01-16 11:50:00,
2013-01-16 06:52:00,35.5,32.9,30.05,NE,45,2.0,5.0,90,0.00,,,0.56,Wunderground PWS Mod,2013-01-16 11:52:00,
2013-01-16 06:54:00,35.5,32.9,30.03,NE,36,2.0,6.0,90,0.00,,,0.00,Wunderground PWS Mod,2013-01-16 11:54:00,
2013-01-16 07:04:00,35.6,33.0,30.02,NE,36,2.0,6.0,90,0.00,,,0.00,Wunderground PWS Mod,2013-01-16 12:04:00,
2013-01-16 07:14:00,35.9,33.3,30.00,NE,37,3.0,6.0,90,0.00,,,0.00,Wunderground PWS Mod,2013-01-16 12:14:00,
2013-01-16 07:16:00,35.5,32.9,30.05,NE,45,2.0,5.0,90,0.00,,,0.56,Wunderground PWS Mod,2013-01-16 12:16:00,
2013-01-16 07:24:00,35.6,33.0,30.00,NE,37,2.0,6.0,90,0.00,,,0.00,Wunderground PWS Mod,2013-01-16 12:24:00,
2013-01-16 07:34:00,36.3,33.6,30.02,NE,37,0.0,6.0,90,0.00,,,0.00,Wunderground PWS Mod,2013-01-16 12:34:00,
2013-01-16 07:44:00,36.0,33.1,30.02,NE,37,1.0,6.0,89,0.00,,,0.00,Wunderground PWS Mod,2013-01-16 12:44:00,
2013-01-16 07:50:00,36.3,33.4,30.03,NE,45,1.0,2.0,89,0.00,,,0.56,Wunderground PWS Mod,2013-01-16 12:50:00,
2013-01-16 07:52:00,36.3,33.4,30.03,NE,45,1.0,2.0,89,0.00,,,0.56,Wunderground PWS Mod,2013-01-16 12:52:00,
2013-01-16 07:54:00,36.2,33.5,30.02,NE,37,1.0,6.0,90,0.00,,,0.00,Wunderground PWS Mod,2013-01-16 12:54:00,
2013-01-16 08:04:00,36.4,33.5,30.01,NE,37,0.0,4.0,89,0.00,,,0.00,Wunderground PWS Mod,2013-01-16 13:04:00,
2013-01-16 08:14:00,36.2,33.3,30.00,NE,37,1.0,4.0,89,0.00,,,0.00,Wunderground PWS Mod,2013-01-16 13:14:00,
2013-01-16 08:20:00,36.5,33.6,30.03,NE,45,1.0,3.0,89,0.00,,,0.56,Wunderground PWS Mod,2013-01-16 13:20:00,
2013-01-16 08:22:00,36.5,33.6,30.03,NE,45,1.0,3.0,89,0.00,,,0.56,Wunderground PWS Mod,2013-01-16 13:22:00,
2013-01-16 08:24:00,37.0,34.3,30.01,NE,37,0.0,4.0,90,0.00,,,0.00,Wunderground PWS Mod,2013-01-16 13:24:00,
2013-01-16 08:34:00,37.1,34.2,30.01,NE,37,0.0,4.0,89,0.00,,,0.00,Wunderground PWS Mod,2013-01-16 13:34:00,
2013-01-16 08:44:00,36.5,33.3,30.01,NE,37,0.0,4.0,88,0.00,,,0.00,Wunderground PWS Mod,2013-01-16 13:44:00,
2013-01-16 08:50:00,36.6,33.7,30.04,NE,45,1.0,4.0,89,0.01,,,0.57,Wunderground PWS Mod,2013-01-16 13:50:00,
2013-01-16 08:52:00,36.6,33.7,30.04,NE,45,1.0,4.0,89,0.01,,,0.57,Wunderground PWS Mod,2013-01-16 13:52:00,
2013-01-16 08:54:00,36.4,33.2,30.02,NE,37,1.0,4.0,88,0.00,,,0.00,Wunderground PWS Mod,2013-01-16 13:54:00,
2013-01-16 09:04:00,37.0,34.1,30.01,NE,37,1.0,3.0,89,0.00,,,0.00,Wunderground PWS Mod,2013-01-16 14:04:00,
2013-01-16 09:14:00,36.5,33.3,30.01,NE,37,1.0,4.0,88,0.00,,,0.00,Wunderground PWS Mod,2013-01-16 14:14:00,
2013-01-16 09:20:00,36.5,33.3,30.03,West,270,1.0,3.0,88,0.02,,,0.58,Wunderground PWS Mod,2013-01-16 14:20:00,
2013-01-16 09:22:00,36.5,33.3,30.03,West,270,1.0,3.0,88,0.02,,,0.58,Wunderground PWS Mod,2013-01-16 14:22:00,
2013-01-16 09:24:00,36.4,33.2,30.02,West,262,1.0,4.0,88,0.00,,,0.00,Wunderground PWS Mod,2013-01-16 14:24:00,
2013-01-16 09:34:00,36.2,33.0,30.00,West,261,0.0,4.0,88,0.00,,,0.00,Wunderground PWS Mod,2013-01-16 14:34:00,
2013-01-16 09:44:00,36.4,33.5,30.00,WSW,252,2.0,4.0,89,0.00,,,0.00,Wunderground PWS Mod,2013-01-16 14:44:00,
2013-01-16 09:50:00,36.5,33.3,30.01,WSW,248,2.0,5.0,88,0.01,,,0.58,Wunderground PWS Mod,2013-01-16 14:50:00,
2013-01-16 09:52:00,36.5,33.3,30.01,WSW,248,2.0,5.0,88,0.01,,,0.58,Wunderground PWS Mod,2013-01-16 14:52:00,
2013-01-16 09:54:00,36.9,34.0,30.00,WSW,242,1.0,4.0,89,0.00,,,0.00,Wunderground PWS Mod,2013-01-16 14:54:00,
2013-01-16 10:04:00,36.6,33.4,29.99,SW,226,2.0,3.0,88,0.00,,,0.00,Wunderground PWS Mod,2013-01-16 15:04:00,
2013-01-16 10:14:00,36.4,33.5,29.99,WSW,239,3.0,5.0,89,0.00,,,0.00,Wunderground PWS Mod,2013-01-16 15:14:00,
2013-01-16 10:20:00,36.6,33.7,30.02,WSW,248,2.0,5.0,89,0.01,,,0.59,Wunderground PWS Mod,2013-01-16 15:20:00,
2013-01-16 10:22:00,36.6,33.7,30.02,WSW,248,2.0,5.0,89,0.01,,,0.59,Wunderground PWS Mod,2013-01-16 15:22:00,
2013-01-16 10:24:00,36.6,33.7,29.98,WSW,245,1.0,5.0,89,0.00,,,0.00,Wunderground PWS Mod,2013-01-16 15:24:00,
2013-01-16 10:34:00,36.8,33.9,29.99,West,266,3.0,5.0,89,0.00,,,0.00,Wunderground PWS Mod,2013-01-16 15:34:00,
2013-01-16 10:44:00,36.7,34.0,30.00,WNW,287,4.0,5.0,90,0.00,,,0.00,Wunderground PWS Mod,2013-01-16 15:44:00,
2013-01-16 10:50:00,36.7,33.8,30.01,West,270,4.0,7.0,89,0.01,,,0.59,Wunderground PWS Mod,2013-01-16 15:50:00,
2013-01-16 10:52:00,36.7,33.8,30.01,West,270,4.0,7.0,89,0.01,,,0.59,Wunderground PWS Mod,2013-01-16 15:52:00,
2013-01-16 10:54:00,36.7,33.8,30.00,West,271,3.0,5.0,89,0.00,,,0.00,Wunderground PWS Mod,2013-01-16 15:54:00,
2013-01-16 11:04:00,36.7,33.8,29.98,WSW,257,3.0,5.0,89,0.00,,,0.00,Wunderground PWS Mod,2013-01-16 16:04:00,
2013-01-16 11:10:00,36.7,33.8,30.01,West,270,4.0,7.0,89,0.01,,,0.59,Wunderground PWS Mod,2013-01-16 16:10:00,
2013-01-16 11:12:00,36.7,33.8,30.01,West,270,4.0,7.0,89,0.01,,,0.59,Wunderground PWS Mod,2013-01-16 16:12:00,
2013-01-16 11:14:00,36.9,34.0,29.98,WSW,250,4.0,7.0,89,0.00,,,0.00,Wunderground PWS Mod,2013-01-16 16:14:00,
2013-01-16 11:24:00,37.1,34.4,29.97,West,268,1.0,7.0,90,0.00,,,0.00,Wunderground PWS Mod,2013-01-16 16:24:00,
2013-01-16 11:34:00,37.1,34.2,29.95,West,261,1.0,7.0,89,0.00,,,0.00,Wunderground PWS Mod,2013-01-16 16:34:00,
2013-01-16 11:44:00,37.4,34.5,29.93,WSW,240,4.0,7.0,89,0.00,,,0.00,Wunderground PWS Mod,2013-01-16 16:44:00,
2013-01-16 11:50:00,37.4,34.5,29.90,SSW,203,4.0,12.0,89,0.00,,,0.59,Wunderground PWS Mod,2013-01-16 16:50:00,
2013-01-16 11:52:00,37.4,34.5,29.90,SSW,203,4.0,12.0,89,0.00,,,0.59,Wunderground PWS Mod,2013-01-16 16:52:00,
2013-01-16 11:54:00,37.4,34.5,29.90,South,170,6.0,7.0,89,0.00,,,0.00,Wunderground PWS Mod,2013-01-16 16:54:00,
2013-01-16 12:04:00,37.6,34.7,29.86,South,171,6.0,6.0,89,0.00,,,0.00,Wunderground PWS Mod,2013-01-16 17:04:00,
2013-01-16 12:10:00,37.4,34.5,29.90,SSW,203,4.0,12.0,89,0.00,,,0.59,Wunderground PWS Mod,2013-01-16 17:10:00,
2013-01-16 12:12:00,37.4,34.5,29.90,SSW,203,4.0,12.0,89,0.00,,,0.59,Wunderground PWS Mod,2013-01-16 17:12:00,
2013-01-16 12:14:00,37.5,34.6,29.86,South,189,4.0,12.0,89,0.00,,,0.00,Wunderground PWS Mod,2013-01-16 17:14:00,
2013-01-16 12:24:00,37.7,34.8,29.86,SSE,150,7.0,12.0,89,0.00,,,0.00,Wunderground PWS Mod,2013-01-16 17:24:00,
2013-01-16 12:34:00,37.8,34.8,29.86,South,189,1.0,12.0,89,0.00,,,0.00,Wunderground PWS Mod,2013-01-16 17:34:00,
2013-01-16 12:44:00,38.1,35.1,29.83,SSE,156,2.0,12.0,89,0.00,,,0.00,Wunderground PWS Mod,2013-01-16 17:44:00,
2013-01-16 12:50:00,38.1,35.1,29.88,South,180,3.0,11.0,89,0.00,,,0.59,Wunderground PWS Mod,2013-01-16 17:50:00,
2013-01-16 12:52:00,38.1,35.1,29.88,South,180,3.0,11.0,89,0.00,,,0.59,Wunderground PWS Mod,2013-01-16 17:52:00,
2013-01-16 12:54:00,38.2,35.2,29.86,South,186,4.0,12.0,89,0.00,,,0.00,Wunderground PWS Mod,2013-01-16 17:54:00,
2013-01-16 13:04:00,38.7,35.7,29.84,South,175,5.0,12.0,89,0.00,,,0.00,Wunderground PWS Mod,2013-01-16 18:04:00,
2013-01-16 13:10:00,38.1,35.1,29.88,South,180,3.0,11.0,89,0.00,,,0.59,Wunderground PWS Mod,2013-01-16 18:10:00,
2013-01-16 13:12:00,38.1,35.1,29.88,South,180,3.0,11.0,89,0.00,,,0.59,Wunderground PWS Mod,2013-01-16 18:12:00,
2013-01-16 13:14:00,38.6,35.6,29.84,SW,228,5.0,12.0,89,0.00,,,0.00,Wunderground PWS Mod,2013-01-16 18:14:00,
2013-01-16 13:24:00,38.8,35.8,29.82,SW,221,6.0,12.0,89,0.00,,,0.00,Wunderground PWS Mod,2013-01-16 18:24:00,
2013-01-16 13:34:00,39.0,36.0,29.80,South,191,8.0,12.0,89,0.00,,,0.00,Wunderground PWS Mod,2013-01-16 18:34:00,
2013-01-16 13:44:00,39.2,36.2,29.83,SSW,196,8.0,13.0,89,0.00,,,0.00,Wunderground PWS Mod,2013-01-16 18:44:00,
2013-01-16 13:50:00,39.2,36.2,29.87,South,180,6.0,18.0,89,0.00,,,0.59,Wunderground PWS Mod,2013-01-16 18:50:00,
2013-01-16 13:52:00,39.2,36.2,29.87,South,180,6.0,18.0,89,0.00,,,0.59,Wunderground PWS Mod,2013-01-16 18:52:00,
2013-01-16 13:54:00,39.4,36.4,29.85,SSW,209,4.0,15.0,89,0.00,,,0.00,Wunderground PWS Mod,2013-01-16 18:54:00,
2013-01-16 14:04:00,39.5,36.5,29.86,South,183,3.0,13.0,89,0.00,,,0.00,Wunderground PWS Mod,2013-01-16 19:04:00,
2013-01-16 14:10:00,39.2,36.2,29.87,South,180,6.0,18.0,89,0.00,,,0.59,Wunderground PWS Mod,2013-01-16 19:10:00,
2013-01-16 14:12:00,39.2,36.2,29.87,South,180,6.0,18.0,89,0.00,,,0.59,Wunderground PWS Mod,2013-01-16 19:12:00,
2013-01-16 14:14:00,39.5,36.5,29.86,NNW,334,1.0,18.0,89,0.00,,,0.00,Wunderground PWS Mod,2013-01-16 19:14:00,
2013-01-16 14:24:00,39.6,36.6,29.88,NNW,346,4.0,18.0,89,0.00,,,0.00,Wunderground PWS Mod,2013-01-16 19:24:00,
2013-01-16 14:34:00,39.6,36.6,29.90,NW,318,4.0,18.0,89,0.00,,,0.00,Wunderground PWS Mod,2013-01-16 19:34:00,
2013-01-16 14:44:00,39.6,36.6,29.91,NW,325,4.0,18.0,89,0.00,,,0.00,Wunderground PWS Mod,2013-01-16 19:44:00,
2013-01-16 14:50:00,39.5,36.5,29.95,NW,315,4.0,9.0,89,0.00,,,0.59,Wunderground PWS Mod,2013-01-16 19:50:00,
2013-01-16 14:52:00,39.5,36.5,29.95,NW,315,4.0,9.0,89,0.00,,,0.59,Wunderground PWS Mod,2013-01-16 19:52:00,
2013-01-16 14:54:00,39.5,36.5,29.90,WNW,292,5.0,18.0,89,0.00,,,0.00,Wunderground PWS Mod,2013-01-16 19:54:00,
2013-01-16 15:04:00,39.5,36.5,29.92,NW,326,2.0,10.0,89,0.00,,,0.00,Wunderground PWS Mod,2013-01-16 20:04:00,
2013-01-16 15:10:00,39.5,36.5,29.95,NW,315,4.0,9.0,89,0.00,,,0.59,Wunderground PWS Mod,2013-01-16 20:10:00,
2013-01-16 15:12:00,39.5,36.5,29.95,NW,315,4.0,9.0,89,0.00,,,0.59,Wunderground PWS Mod,2013-01-16 20:12:00,
2013-01-16 15:14:00,39.5,36.5,29.91,WNW,296,4.0,10.0,89,0.00,,,0.00,Wunderground PWS Mod,2013-01-16 20:14:00,
2013-01-16 15:24:00,39.6,36.6,29.89,NW,325,1.0,10.0,89,0.00,,,0.00,Wunderground PWS Mod,2013-01-16 20:24:00,
2013-01-16 15:34:00,39.6,36.6,29.91,NW,312,1.0,10.0,89,0.00,,,0.00,Wunderground PWS Mod,2013-01-16 20:34:00,
2013-01-16 15:44:00,39.8,36.8,29.92,SSW,198,2.0,10.0,89,0.00,,,0.00,Wunderground PWS Mod,2013-01-16 20:44:00,
2013-01-16 15:50:00,39.8,36.8,29.93,WNW,293,2.0,7.0,89,0.00,,,0.59,Wunderground PWS Mod,2013-01-16 20:50:00,
2013-01-16 15:52:00,39.8,36.8,29.93,WNW,293,2.0,7.0,89,0.00,,,0.59,Wunderground PWS Mod,2013-01-16 20:52:00,
2013-01-16 15:54:00,39.7,36.7,29.90,WNW,282,0.0,10.0,89,0.00,,,0.00,Wunderground PWS Mod,2013-01-16 20:54:00,
2013-01-16 16:04:00,40.1,36.8,29.91,West,260,3.0,6.0,88,0.00,,,0.00,Wunderground PWS Mod,2013-01-16 21:04:00,
2013-01-16 16:10:00,39.8,36.8,29.93,WNW,293,2.0,7.0,89,0.00,,,0.59,Wunderground PWS Mod,2013-01-16 21:10:00,
2013-01-16 16:12:00,39.8,36.8,29.93,WNW,293,2.0,7.0,89,0.00,,,0.59,Wunderground PWS Mod,2013-01-16 21:12:00,
2013-01-16 16:14:00,39.9,36.6,29.91,West,260,1.0,7.0,88,0.00,,,0.00,Wunderground PWS Mod,2013-01-16 21:14:00,
2013-01-16 16:24:00,40.3,37.0,29.92,SW,228,1.0,7.0,88,0.00,,,0.00,Wunderground PWS Mod,2013-01-16 21:24:00,
2013-01-16 16:34:00,40.0,36.7,29.91,SW,228,3.0,7.0,88,0.00,,,0.00,Wunderground PWS Mod,2013-01-16 21:34:00,
2013-01-16 16:44:00,40.1,36.8,29.92,WNW,286,2.0,7.0,88,0.00,,,0.00,Wunderground PWS Mod,2013-01-16 21:44:00,
2013-01-16 16:50:00,40.0,36.7,29.94,WSW,248,2.0,5.0,88,0.00,,,0.59,Wunderground PWS Mod,2013-01-16 21:50:00,
2013-01-16 16:52:00,40.0,36.7,29.94,WSW,248,2.0,5.0,88,0.00,,,0.59,Wunderground PWS Mod,2013-01-16 21:52:00,
2013-01-16 16:54:00,40.1,36.8,29.91,WSW,242,3.0,7.0,88,0.00,,,0.00,Wunderground PWS Mod,2013-01-16 21:54:00,
2013-01-16 17:04:00,40.3,37.0,29.92,SW,236,2.0,4.0,88,0.00,,,0.00,Wunderground PWS Mod,2013-01-16 22:04:00,
2013-01-16 17:14:00,40.4,37.1,29.92,SW,236,1.0,5.0,88,0.00,,,0.00,Wunderground PWS Mod,2013-01-16 22:14:00,
2013-01-16 17:18:00,40.2,36.9,29.96,SW,225,2.0,4.0,88,0.00,,,0.59,Wunderground PWS Mod,2013-01-16 22:18:00,
2013-01-16 17:24:00,40.1,36.8,29.93,SW,236,1.0,5.0,88,0.00,,,0.00,Wunderground PWS Mod,2013-01-16 22:24:00,
2013-01-16 17:34:00,39.9,36.6,29.94,SW,236,3.0,5.0,88,0.00,,,0.00,Wunderground PWS Mod,2013-01-16 22:34:00,
2013-01-16 17:44:00,39.8,36.5,29.94,WSW,239,3.0,5.0,88,0.00,,,0.00,Wunderground PWS Mod,2013-01-16 22:44:00,
2013-01-16 17:50:00,39.9,36.9,29.98,WSW,248,2.0,6.0,89,0.00,,,0.59,Wunderground PWS Mod,2013-01-16 22:50:00,
2013-01-16 17:52:00,39.9,36.9,29.98,WSW,248,2.0,6.0,89,0.00,,,0.59,Wunderground PWS Mod,2013-01-16 22:52:00,
2013-01-16 17:54:00,39.9,36.6,29.93,West,267,2.0,5.0,88,0.00,,,0.00,Wunderground PWS Mod,2013-01-16 22:54:00,
2013-01-16 18:04:00,40.0,37.0,29.95,WNW,289,3.0,4.0,89,0.00,,,0.00,Wunderground PWS Mod,2013-01-16 23:04:00,
2013-01-16 18:14:00,39.9,36.9,29.95,West,270,3.0,6.0,89,0.00,,,0.00,Wunderground PWS Mod,2013-01-16 23:14:00,
2013-01-16 18:18:00,40.0,37.0,29.98,West,270,2.0,5.0,89,0.00,,,0.59,Wunderground PWS Mod,2013-01-16 23:18:00,
2013-01-16 18:24:00,40.0,37.0,29.95,West,271,3.0,6.0,89,0.00,,,0.00,Wunderground PWS Mod,2013-01-16 23:24:00,
2013-01-16 18:34:00,40.0,37.0,29.96,West,271,3.0,6.0,89,0.00,,,0.00,Wunderground PWS Mod,2013-01-16 23:34:00,
2013-01-16 18:44:00,40.1,37.1,29.94,West,271,1.0,6.0,89,0.00,,,0.00,Wunderground PWS Mod,2013-01-16 23:44:00,
2013-01-16 18:50:00,40.1,36.8,29.96,West,270,1.0,4.0,88,0.00,,,0.59,Wunderground PWS Mod,2013-01-16 23:50:00,
2013-01-16 18:52:00,40.1,36.8,29.96,West,270,1.0,4.0,88,0.00,,,0.59,Wunderground PWS Mod,2013-01-16 23:52:00,
2013-01-16 18:54:00,40.2,37.2,29.93,West,271,2.0,6.0,89,0.00,,,0.00,Wunderground PWS Mod,2013-01-16 23:54:00,
2013-01-16 19:04:00,40.2,37.2,29.93,West,271,2.0,5.0,89,0.00,,,0.00,Wunderground PWS Mod,2013-01-17 00:04:00,
2013-01-16 19:10:00,40.1,36.8,29.96,West,270,1.0,4.0,88,0.00,,,0.59,Wunderground PWS Mod,2013-01-17 00:10:00,
2013-01-16 19:12:00,40.1,36.8,29.96,West,270,1.0,4.0,88,0.00,,,0.59,Wunderground PWS Mod,2013-01-17 00:12:00,
2013-01-16 19:14:00,40.3,37.3,29.94,West,271,1.0,5.0,89,0.00,,,0.00,Wunderground PWS Mod,2013-01-17 00:14:00,
2013-01-16 19:24:00,40.3,37.0,29.95,West,271,0.0,5.0,88,0.00,,,0.00,Wunderground PWS Mod,2013-01-17 00:24:00,
2013-01-16 19:34:00,40.4,37.4,29.95,West,271,1.0,5.0,89,0.00,,,0.00,Wunderground PWS Mod,2013-01-17 00:34:00,
2013-01-16 19:44:00,40.4,37.4,29.95,West,271,2.0,5.0,89,0.00,,,0.00,Wunderground PWS Mod,2013-01-17 00:44:00,
2013-01-16 19:50:00,40.4,37.1,29.98,West,270,1.0,3.0,88,0.00,,,0.59,Wunderground PWS Mod,2013-01-17 00:50:00,
2013-01-16 19:52:00,40.4,37.1,29.98,West,270,1.0,3.0,88,0.00,,,0.59,Wunderground PWS Mod,2013-01-17 00:52:00,
2013-01-16 19:54:00,40.4,37.1,29.95,West,271,1.0,5.0,88,0.00,,,0.00,Wunderground PWS Mod,2013-01-17 00:54:00,
2013-01-16 20:04:00,40.3,37.0,29.95,West,271,1.0,3.0,88,0.00,,,0.00,Wunderground PWS Mod,2013-01-17 01:04:00,
2013-01-16 20:14:00,40.4,37.1,29.95,West,271,1.0,3.0,88,0.00,,,0.00,Wunderground PWS Mod,2013-01-17 01:14:00,
2013-01-16 20:18:00,40.3,37.3,29.96,West,270,1.0,4.0,89,0.00,,,0.59,Wunderground PWS Mod,2013-01-17 01:18:00,
2013-01-16 20:24:00,40.3,37.3,29.94,West,271,1.0,3.0,89,0.00,,,0.00,Wunderground PWS Mod,2013-01-17 01:24:00,
2013-01-16 20:34:00,40.4,37.1,29.94,West,271,2.0,3.0,88,0.00,,,0.00,Wunderground PWS Mod,2013-01-17 01:34:00,
2013-01-16 20:44:00,40.5,37.2,29.95,West,271,1.0,4.0,88,0.00,,,0.00,Wunderground PWS Mod,2013-01-17 01:44:00,
2013-01-16 20:50:00,40.5,37.2,29.98,West,270,1.0,3.0,88,0.00,,,0.59,Wunderground PWS Mod,2013-01-17 01:50:00,
2013-01-16 20:52:00,40.5,37.2,29.98,West,270,1.0,3.0,88,0.00,,,0.59,Wunderground PWS Mod,2013-01-17 01:52:00,
2013-01-16 20:54:00,40.5,37.2,29.95,West,271,2.0,4.0,88,0.00,,,0.00,Wunderground PWS Mod,2013-01-17 01:54:00,
2013-01-16 21:04:00,40.5,37.2,29.95,West,271,1.0,4.0,88,0.00,,,0.00,Wunderground PWS Mod,2013-01-17 02:04:00,
2013-01-16 21:14:00,40.6,37.3,29.94,West,271,0.0,4.0,88,0.00,,,0.00,Wunderground PWS Mod,2013-01-17 02:14:00,
2013-01-16 21:20:00,40.8,37.2,29.97,West,270,1.0,3.0,87,0.00,,,0.59,Wunderground PWS Mod,2013-01-17 02:20:00,
2013-01-16 21:22:00,40.8,37.2,29.97,West,270,1.0,3.0,87,0.00,,,0.59,Wunderground PWS Mod,2013-01-17 02:22:00,
2013-01-16 21:24:00,41.0,37.4,29.94,West,271,2.0,4.0,87,0.00,,,0.00,Wunderground PWS Mod,2013-01-17 02:24:00,
2013-01-16 21:34:00,40.8,37.2,29.94,West,271,1.0,4.0,87,0.00,,,0.00,Wunderground PWS Mod,2013-01-17 02:34:00,
2013-01-16 21:44:00,40.7,37.4,29.94,West,271,1.0,4.0,88,0.00,,,0.00,Wunderground PWS Mod,2013-01-17 02:44:00,
2013-01-16 21:50:00,40.7,37.4,29.97,West,270,1.0,4.0,88,0.00,,,0.59,Wunderground PWS Mod,2013-01-17 02:50:00,
2013-01-16 21:52:00,40.7,37.4,29.97,West,270,1.0,4.0,88,0.00,,,0.59,Wunderground PWS Mod,2013-01-17 02:52:00,
2013-01-16 21:54:00,40.7,37.4,29.94,West,271,0.0,4.0,88,0.00,,,0.00,Wunderground PWS Mod,2013-01-17 02:54:00,
2013-01-16 22:04:00,40.7,37.4,29.95,West,271,1.0,3.0,88,0.00,,,0.00,Wunderground PWS Mod,2013-01-17 03:04:00,
2013-01-16 22:10:00,40.7,37.4,29.97,West,270,1.0,4.0,88,0.00,,,0.59,Wunderground PWS Mod,2013-01-17 03:10:00,
2013-01-16 22:12:00,40.7,37.4,29.97,West,270,1.0,4.0,88,0.00,,,0.59,Wunderground PWS Mod,2013-01-17 03:12:00,
2013-01-16 22:14:00,40.7,37.4,29.94,West,271,0.0,4.0,88,0.00,,,0.00,Wunderground PWS Mod,2013-01-17 03:14:00,
2013-01-16 22:24:00,40.7,37.4,29.96,West,271,3.0,4.0,88,0.00,,,0.00,Wunderground PWS Mod,2013-01-17 03:24:00,
2013-01-16 22:34:00,40.7,37.4,29.95,West,271,1.0,4.0,88,0.00,,,0.00,Wunderground PWS Mod,2013-01-17 03:34:00,
2013-01-16 22:44:00,40.7,37.4,29.94,West,271,2.0,4.0,88,0.00,,,0.00,Wunderground PWS Mod,2013-01-17 03:44:00,
2013-01-16 22:50:00,40.7,37.4,29.97,West,270,1.0,4.0,88,0.00,,,0.59,Wunderground PWS Mod,2013-01-17 03:50:00,
2013-01-16 22:52:00,40.7,37.4,29.97,West,270,1.0,4.0,88,0.00,,,0.59,Wunderground PWS Mod,2013-01-17 03:52:00,
2013-01-16 22:54:00,40.8,37.5,29.95,West,271,0.0,4.0,88,0.00,,,0.00,Wunderground PWS Mod,2013-01-17 03:54:00,
2013-01-16 23:04:00,40.8,37.5,29.95,West,271,1.0,4.0,88,0.00,,,0.00,Wunderground PWS Mod,2013-01-17 04:04:00,
2013-01-16 23:14:00,40.7,37.4,29.94,West,271,1.0,4.0,88,0.00,,,0.00,Wunderground PWS Mod,2013-01-17 04:14:00,
2013-01-16 23:20:00,40.8,37.5,29.98,West,270,1.0,4.0,88,0.00,,,0.59,Wunderground PWS Mod,2013-01-17 04:20:00,
2013-01-16 23:22:00,40.8,37.5,29.98,West,270,1.0,4.0,88,0.00,,,0.59,Wunderground PWS Mod,2013-01-17 04:22:00,
2013-01-16 23:24:00,40.8,37.5,29.95,West,271,1.0,4.0,88,0.00,,,0.00,Wunderground PWS Mod,2013-01-17 04:24:00,
2013-01-16 23:34:00,40.9,37.6,29.95,West,271,2.0,4.0,88,0.00,,,0.00,Wunderground PWS Mod,2013-01-17 04:34:00,
2013-01-16 23:44:00,40.9,37.6,29.95,West,271,1.0,4.0,88,0.00,,,0.00,Wunderground PWS Mod,2013-01-17 04:44:00,
2013-01-16 23:50:00,41.1,37.8,29.97,West,270,1.0,4.0,88,0.00,,,0.59,Wunderground PWS Mod,2013-01-17 04:50:00,
2013-01-16 23:52:00,41.1,37.8,29.97,West,270,1.0,4.0,88,0.00,,,0.59,Wunderground PWS Mod,2013-01-17 04:52:00,
2013-01-16 23:54:00,41.4,38.4,29.95,West,271,1.0,4.0,89,0.00,,,0.00,Wunderground PWS Mod,2013-01-17 04:54:00,